LSZH 200150Z AUTO 02001KT 9999 NSC 15/13 Q1024 NOSIG LSZH 200120Z AUTO VRB01KT 9999 NSC 15/13 Q1024 NOSIG LSZH 200050Z AUTO VRB01KT 9999 NSC 16/13 Q1024 NOSIG LSZH 200020Z AUTO VRB01KT 9999 NSC 16/13 Q1024 NOSIG LSZH 192350Z AUTO 04003KT 9999 NSC 17/13 Q1024 NOSIG LSZH 192320Z AUTO VRB02KT 9999 NSC 17/13 Q1024 NOSIG LSZH 192250Z AUTO VRB02KT 9999 NSC 17/13 Q1024 NOSIG LSZH 192220Z AUTO VRB02KT 9999 NSC 18/13 Q1024 NOSIG LSZH 192150Z AUTO VRB01KT 9999 NSC 18/13 Q1024 NOSIG LSZH 192120Z VRB02KT CAVOK 19/13 Q1024 NOSIG LSZH 192050Z VRB02KT CAVOK 19/13 Q1024 NOSIG LSZH 192020Z 20004KT CAVOK 20/13 Q1024 NOSIG LSZH 191950Z 17005KT CAVOK 19/14 Q1023 NOSIG LSZH 191920Z 18007KT CAVOK 20/14 Q1023 NOSIG LSZH 191850Z 14006KT CAVOK 22/14 Q1023 NOSIG LSZH 191820Z 15007KT CAVOK 22/14 Q1023 NOSIG LSZH 191750Z 17008KT CAVOK 23/13 Q1023 NOSIG LSZH 191720Z 16010KT 9999 FEW050TCU 23/14 Q1023 NOSIG LSZH 191650Z 19009KT 9999 FEW075 24/14 Q1023 NOSIG LSZH 191620Z 15005KT 9999 FEW060TCU 25/15 Q1023 NOSIG LSZH 191550Z 13011KT 9999 FEW060 24/16 Q1023 NOSIG LSZH 191520Z 23006KT 200V280 9999 FEW060TCU 27/13 Q1022 NOSIG LSZH 191450Z 29009KT 250V310 9999 TS FEW050CB 26/14 Q1022 BECMG NSW LSZH 191420Z 29016KT 9999 TS SCT060CB 26/13 Q1022 BECMG NSW LSZH 191350Z 22013KT 180V250 9999 FEW064 FEW068CB 29/11 Q1022 TEMPO TSRA LSZH 191320Z 25011KT 9999 FEW060 FEW064CB 29/11 Q1022 NOSIG LSZH 191250Z 25010KT 9999 FEW060 FEW064CB 29/12 Q1022 NOSIG LSZH 191220Z 23008KT 190V280 9999 VCSH FEW060TCU 29/14 Q1022 NOSIG LSZH 191150Z 20005G17KT 140V250 9999 FEW052TCU 28/15 Q1022 NOSIG LSZH 191120Z VRB04KT 9999 FEW052 28/15 Q1022 NOSIG LSZH 191050Z 31003KT 190V010 9999 FEW052 27/13 Q1023 NOSIG LSZH 191020Z 21005KT 130V290 9999 FEW050 27/15 Q1023 NOSIG LSZH 190950Z 20003KT 130V280 CAVOK 26/15 Q1023 NOSIG LSZH 190920Z 23005KT 170V270 CAVOK 25/14 Q1023 NOSIG LSZH 190850Z VRB02KT CAVOK 24/14 Q1023 NOSIG LSZH 190820Z VRB03KT CAVOK 23/14 Q1024 NOSIG LSZH 190750Z VRB02KT CAVOK 22/14 Q1024 NOSIG LSZH 190720Z VRB01KT CAVOK 21/13 Q1024 NOSIG LSZH 190650Z VRB01KT CAVOK 20/13 Q1024 NOSIG LSZH 190620Z VRB03KT CAVOK 18/12 Q1023 NOSIG LSZH 190550Z VRB01KT CAVOK 16/13 Q1023 NOSIG LSZH 190520Z VRB01KT CAVOK 15/13 Q1023 NOSIG LSZH 190450Z VRB01KT CAVOK 15/12 Q1022 NOSIG LSZH 190420Z VRB01KT CAVOK 13/11 Q1022 NOSIG LSZH 190350Z 00000KT CAVOK 13/11 Q1022 NOSIG LSZH 190320Z AUTO 01001KT 9999 NCD 13/12 Q1022 NOSIG LSZH 190250Z AUTO 00000KT 9999 NCD 13/11 Q1022 NOSIG LSZH 190220Z AUTO 02001KT 9999 NCD 13/12 Q1022 NOSIG LSZH 190150Z AUTO 32001KT 9999 NCD 15/11 Q1022 NOSIG LSZH 190120Z AUTO VRB02KT 9999 NCD 14/12 Q1021 NOSIG LSZH 190050Z AUTO 35003KT 9999 NCD 15/11 Q1021 NOSIG LSZH 190020Z AUTO 31006KT 9999 NCD 15/11 Q1021 NOSIG LSZH 182350Z AUTO 32006KT 9999 NCD 16/11 Q1021 NOSIG LSZH 182320Z AUTO 33006KT 9999 NCD 17/12 Q1021 NOSIG LSZH 182250Z AUTO 34003KT 280V030 9999 NCD 18/11 Q1021 NOSIG LSZH 182220Z AUTO VRB03KT 9999 NCD 20/11 Q1021 NOSIG LSZH 182150Z AUTO VRB03KT 9999 NCD 21/11 Q1021 NOSIG LSZH 182120Z 29004KT 260V340 CAVOK 21/10 Q1021 NOSIG LSZH 182050Z VRB03KT CAVOK 21/10 Q1021 NOSIG LSZH 182020Z 06005KT 030V100 CAVOK 23/10 Q1021 NOSIG LSZH 181950Z 06008KT CAVOK 23/09 Q1021 NOSIG LSZH 181920Z 06007KT CAVOK 24/09 Q1021 NOSIG LSZH 181850Z 06008KT CAVOK 24/09 Q1020 NOSIG LSZH 181820Z 06006KT CAVOK 25/09 Q1020 NOSIG LSZH 181750Z 07006KT 030V100 CAVOK 26/09 Q1020 NOSIG LSZH 181720Z 07008KT CAVOK 27/09 Q1020 NOSIG LSZH 181650Z 07007KT 030V110 CAVOK 27/09 Q1020 NOSIG LSZH 181620Z 09008KT CAVOK 27/09 Q1020 NOSIG LSZH 181550Z 08006KT 020V160 CAVOK 27/10 Q1020 NOSIG LSZH 181520Z 05006KT 010V110 CAVOK 27/09 Q1021 NOSIG LSZH 181450Z 05008KT 020V090 CAVOK 27/09 Q1021 NOSIG LSZH 181420Z 05009KT 010V080 CAVOK 27/09 Q1021 NOSIG

METAR Messwerte "ZURICH-KLOTEN (A" LSZH

Zurück zur Übersicht

Ortsname
Ländercode / m ü. NN
Zeit Temperatur Taupunkt Rel.
Luftfeuchte
Luftdruck:
Altimeter
NN
Station
Wind in Beaufort
(Knoten)
Sichtweite
(Meter)
Wolken
(Meter über Grund)
Wettererscheinung
ZURICH-KLOTEN (A
CH 424
Fr 20.05. 03:50151388 %1024
1024
974
NNO 1 (1)>= 10000Nicht signifikant 
ZURICH-KLOTEN (A
CH 424
Fr 20.05. 03:20151388 %1024
1024
974
Uml 1 (1)>= 10000Nicht signifikant 
ZURICH-KLOTEN (A
CH 424
Fr 20.05. 02:50161382 %1024
1024
974
Uml 1 (1)>= 10000Nicht signifikant 
ZURICH-KLOTEN (A
CH 424
Fr 20.05. 02:20161382 %1024
1024
974
Uml 1 (1)>= 10000Nicht signifikant 
ZURICH-KLOTEN (A
CH 424
Fr 20.05. 01:50171377 %1024
1024
974
NO 2 (3)>= 10000Nicht signifikant 
ZURICH-KLOTEN (A
CH 424
Fr 20.05. 01:20171377 %1024
1024
974
Uml 1 (2)>= 10000Nicht signifikant 
ZURICH-KLOTEN (A
CH 424
Fr 20.05. 00:50171377 %1024
1024
974
Uml 1 (2)>= 10000Nicht signifikant 
ZURICH-KLOTEN (A
CH 424
Fr 20.05. 00:20181373 %1024
1024
974
Uml 1 (2)>= 10000Nicht signifikant 
ZURICH-KLOTEN (A
CH 424
Do 19.05. 23:50181373 %1024
1024
974
Uml 1 (1)>= 10000Nicht signifikant 
ZURICH-KLOTEN (A
CH 424
Do 19.05. 23:20191368 %1024
1023
974
Uml 1 (2)>= 10000Nicht signifikant 
ZURICH-KLOTEN (A
CH 424
Do 19.05. 22:50191368 %1024
1023
974
Uml 1 (2)>= 10000Nicht signifikant 
ZURICH-KLOTEN (A
CH 424
Do 19.05. 22:20201364 %1024
1023
974
SSW 2 (4)>= 10000Nicht signifikant 
ZURICH-KLOTEN (A
CH 424
Do 19.05. 21:50191473 %1023
1022
973
S 2 (5)>= 10000Nicht signifikant 
ZURICH-KLOTEN (A
CH 424
Do 19.05. 21:20201468 %1023
1022
973
S 3 (7)>= 10000Nicht signifikant 
ZURICH-KLOTEN (A
CH 424
Do 19.05. 20:50221460 %1023
1022
973
SO 2 (6)>= 10000Nicht signifikant 
ZURICH-KLOTEN (A
CH 424
Do 19.05. 20:20221460 %1023
1022
973
SSO 3 (7)>= 10000Nicht signifikant 
ZURICH-KLOTEN (A
CH 424
Do 19.05. 19:50231353 %1023
1022
973
S 3 (8)>= 10000Nicht signifikant 
ZURICH-KLOTEN (A
CH 424
Do 19.05. 19:20231457 %1023
1022
973
SSO 3 (10)>= 10000Leicht bewölkt (1500) 
ZURICH-KLOTEN (A
CH 424
Do 19.05. 18:50241454 %1023
1022
973
S 3 (9)>= 10000Leicht bewölkt (2300) 
ZURICH-KLOTEN (A
CH 424
Do 19.05. 18:20251554 %1023
1021
973
SSO 2 (5)>= 10000Leicht bewölkt (1800) 
ZURICH-KLOTEN (A
CH 424
Do 19.05. 17:50241661 %1023
1022
973
SO 4 (11)>= 10000Leicht bewölkt (1800) 
ZURICH-KLOTEN (A
CH 424
Do 19.05. 17:20271342 %1022
1020
972
SW 2 (6)
SSW - W
>= 10000Leicht bewölkt (1800) 
ZURICH-KLOTEN (A
CH 424
Do 19.05. 16:50261448 %1022
1020
972
WNW 3 (9)
WSW - NW
>= 10000Leicht bewölkt Cb (1500) 
ZURICH-KLOTEN (A
CH 424
Do 19.05. 16:20261345 %1022
1020
972
WNW 5 (16)>= 10000Wolkig Cb (1800) 
ZURICH-KLOTEN (A
CH 424
Do 19.05. 15:50291133 %1022
1020
972
SW 4 (13)
S - WSW
>= 10000Leicht bewölkt Cb (2100)
Leicht bewölkt (2000)
 Bald zeitweise: Gewitter mit Regen
ZURICH-KLOTEN (A
CH 424
Do 19.05. 15:20291133 %1022
1020
972
WSW 4 (11)>= 10000Leicht bewölkt Cb (2000)
Leicht bewölkt (1800)
 
ZURICH-KLOTEN (A
CH 424
Do 19.05. 14:50291235 %1022
1020
972
WSW 3 (10)>= 10000Leicht bewölkt Cb (2000)
Leicht bewölkt (1800)
 
ZURICH-KLOTEN (A
CH 424
Do 19.05. 14:20291440 %1022
1020
972
SW 3 (8)
S - W
>= 10000Leicht bewölkt (1800) 
ZURICH-KLOTEN (A
CH 424
Do 19.05. 13:50281545 %1022
1020
972
SSW 2 (5) - 5 (17)
SO - WSW
>= 10000Leicht bewölkt (1600) 
ZURICH-KLOTEN (A
CH 424
Do 19.05. 13:20281545 %1022
1020
972
Uml 2 (4)>= 10000Leicht bewölkt (1600) 
ZURICH-KLOTEN (A
CH 424
Do 19.05. 12:50271342 %1023
1021
973
NW 2 (3)
S - N
>= 10000Leicht bewölkt (1600) 
ZURICH-KLOTEN (A
CH 424
Do 19.05. 12:20271548 %1023
1021
973
SSW 2 (5)
SO - WNW
>= 10000Leicht bewölkt (1500) 
ZURICH-KLOTEN (A
CH 424
Do 19.05. 11:50261551 %1023
1021
973
SSW 2 (3)
SO - W
>= 10000Nicht signifikant 
ZURICH-KLOTEN (A
CH 424
Do 19.05. 11:20251450 %1023
1021
973
SW 2 (5)
S - W
>= 10000Nicht signifikant 
ZURICH-KLOTEN (A
CH 424
Do 19.05. 10:50241454 %1023
1022
973
Uml 1 (2)>= 10000Nicht signifikant 
ZURICH-KLOTEN (A
CH 424
Do 19.05. 10:20231457 %1024
1023
974
Uml 2 (3)>= 10000Nicht signifikant 
ZURICH-KLOTEN (A
CH 424
Do 19.05. 09:50221460 %1024
1023
974
Uml 1 (2)>= 10000Nicht signifikant 
ZURICH-KLOTEN (A
CH 424
Do 19.05. 09:20211360 %1024
1023
974
Uml 1 (1)>= 10000Nicht signifikant 
ZURICH-KLOTEN (A
CH 424
Do 19.05. 08:50201364 %1024
1023
974
Uml 1 (1)>= 10000Nicht signifikant 
ZURICH-KLOTEN (A
CH 424
Do 19.05. 08:20181268 %1023
1023
973
Uml 2 (3)>= 10000Nicht signifikant 
ZURICH-KLOTEN (A
CH 424
Do 19.05. 07:50161382 %1023
1023
973
Uml 1 (1)>= 10000Nicht signifikant 
ZURICH-KLOTEN (A
CH 424
Do 19.05. 07:20151388 %1023
1023
973
Uml 1 (1)>= 10000Nicht signifikant 
ZURICH-KLOTEN (A
CH 424
Do 19.05. 06:50151282 %1022
1022
972
Uml 1 (1)>= 10000Nicht signifikant 
ZURICH-KLOTEN (A
CH 424
Do 19.05. 06:20131188 %1022
1022
972
Uml 1 (1)>= 10000Nicht signifikant 
ZURICH-KLOTEN (A
CH 424
Do 19.05. 05:50131188 %1022
1022
972
Windstill>= 10000Nicht signifikant 
ZURICH-KLOTEN (A
CH 424
Do 19.05. 05:20131294 %1022
1022
972
N 1 (1)>= 10000  
ZURICH-KLOTEN (A
CH 424
Do 19.05. 04:50131188 %1022
1022
972
Windstill>= 10000  
ZURICH-KLOTEN (A
CH 424
Do 19.05. 04:20131294 %1022
1022
972
NNO 1 (1)>= 10000  
ZURICH-KLOTEN (A
CH 424
Do 19.05. 03:50151177 %1022
1022
972
NW 1 (1)>= 10000  
ZURICH-KLOTEN (A
CH 424
Do 19.05. 03:20141288 %1021
1021
971
Uml 1 (2)>= 10000  
ZURICH-KLOTEN (A
CH 424
Do 19.05. 02:50151177 %1021
1021
971
N 2 (3)>= 10000  
ZURICH-KLOTEN (A
CH 424
Do 19.05. 02:20151177 %1021
1021
971
NW 2 (6)>= 10000  
ZURICH-KLOTEN (A
CH 424
Do 19.05. 01:50161172 %1021
1021
971
NW 2 (6)>= 10000  
ZURICH-KLOTEN (A
CH 424
Do 19.05. 01:20171272 %1021
1021
971
NNW 2 (6)>= 10000  
ZURICH-KLOTEN (A
CH 424
Do 19.05. 00:50181164 %1021
1021
971
NNW 2 (3)
W - NNO
>= 10000  
ZURICH-KLOTEN (A
CH 424
Do 19.05. 00:20201156 %1021
1020
971
Uml 2 (3)>= 10000  
ZURICH-KLOTEN (A
CH 424
Mi 18.05. 23:50211153 %1021
1020
971
Uml 2 (3)>= 10000  
ZURICH-KLOTEN (A
CH 424
Mi 18.05. 23:20211049 %1021
1020
971
WNW 2 (4)
W - NNW
>= 10000Nicht signifikant 
ZURICH-KLOTEN (A
CH 424
Mi 18.05. 22:50211049 %1021
1020
971
Uml 2 (3)>= 10000Nicht signifikant 
ZURICH-KLOTEN (A
CH 424
Mi 18.05. 22:20231044 %1021
1020
971
ONO 2 (5)
NNO - O
>= 10000Nicht signifikant 
ZURICH-KLOTEN (A
CH 424
Mi 18.05. 21:5023941 %1021
1020
971
ONO 3 (8)>= 10000Nicht signifikant 
ZURICH-KLOTEN (A
CH 424
Mi 18.05. 21:2024938 %1021
1020
971
ONO 3 (7)>= 10000Nicht signifikant 
ZURICH-KLOTEN (A
CH 424
Mi 18.05. 20:5024938 %1020
1019
970
ONO 3 (8)>= 10000Nicht signifikant 
ZURICH-KLOTEN (A
CH 424
Mi 18.05. 20:2025936 %1020
1018
970
ONO 2 (6)>= 10000Nicht signifikant 
ZURICH-KLOTEN (A
CH 424
Mi 18.05. 19:5026934 %1020
1018
970
ONO 2 (6)
NNO - O
>= 10000Nicht signifikant 
ZURICH-KLOTEN (A
CH 424
Mi 18.05. 19:2027932 %1020
1018
970
ONO 3 (8)>= 10000Nicht signifikant 
ZURICH-KLOTEN (A
CH 424
Mi 18.05. 18:5027932 %1020
1018
970
ONO 3 (7)
NNO - OSO
>= 10000Nicht signifikant 
ZURICH-KLOTEN (A
CH 424
Mi 18.05. 18:2027932 %1020
1018
970
O 3 (8)>= 10000Nicht signifikant 
ZURICH-KLOTEN (A
CH 424
Mi 18.05. 17:50271034 %1020
1018
970
O 2 (6)
NNO - SSO
>= 10000Nicht signifikant 
ZURICH-KLOTEN (A
CH 424
Mi 18.05. 17:2027932 %1021
1019
971
NO 2 (6)
N - OSO
>= 10000Nicht signifikant 
ZURICH-KLOTEN (A
CH 424
Mi 18.05. 16:5027932 %1021
1019
971
NO 3 (8)
NNO - O
>= 10000Nicht signifikant 
ZURICH-KLOTEN (A
CH 424
Mi 18.05. 16:2027932 %1021
1019
971
NO 3 (9)
N - O
>= 10000Nicht signifikant 

Altimeter: Einstellung am Altimeter (Höhenmesser), die Höhe 0 muss auf diesen Luftdruckwert zeigen, damit das Gerät die Stationshöhe richtig anzeigt.

NN: Luftdruck reduziert auf "Normal Null", auf Meereshöhe, dieser von der Temperatur abhängige Wert wird bisweilen unkorrekt einfach als "Luftdruck" bezeichnet. Eigentlich nur eine fiktive Größe, die es erlaubt, Stationen auf unterschiedlichen Höhen miteinander zu vergleichen.

Station: Realer Luftdruck an der Station.